Airfield :
LOGIN :

Register | Disclaimer

   EN    FR    IT 

 










Legend :    VFR   Marginal VFR   IFR   Intensive IFR   Very Intensive IFR
Visi :
Ceiling :
>= 8 km
>= 3000ft
5 to 8 km
1000 to 3000 ft
1500m to 5 km
500 to 1000 ft
800 to 1500m
200 to 500 ft
< 800m
< 200 ft
Symbols :   Thunderstorms  Fog  Heavy snow  Heavy precipitations  Wind > 20 kt
SIGMETs :     Misc.  Thunderstorms  Icing  Turbulence  Mountain Waves  Volcanic Ashes







- Airport Elevation : 1649 ft
- IATA code : HHN


EDFH - Frankfurt-Hahn Rhineland-Palatinate

CURRENT METAR :
  • 201620Z 14009KT 120V180 0500 R21/1400VP2000D SN FZFG BKN001 M00/M01 Q0997

EXPIRED METARs :
  • 201550Z 14009KT 0500 R21/1900N -SN FZFG BKN001 M00/M01 Q0997
  • 201520Z 13010KT 0500 R21/1600N -SN FZFG BKN001 M00/M01 Q0998
  • 201450Z 14010KT 0800 R21/1600N -SN FZFG BKN002 M00/M01 Q0998
  • 201420Z 13011KT 0800 R21/0650V1400U -SN FZFG SCT001 BKN002 M00/M01 Q0999
  • 201350Z 13009KT 1000 R21/0750V1700D -SN BR SCT001 BKN002 M00/M00 Q0999

TAF AMD TAF EDFH
Valid from the 20 at 14:00 until the 21 at 12:00 UTC


201448Z 2014/2112 15008KT 5000 BR SCT005 BKN006
TEMPO 2014/2024 2500 SN OVC002
PROB30
TEMPO 2014/2108 0800 FZFG BKN001
BECMG 2021/2024 30008KT
BECMG 2109/2112 BKN015
No reported NOTAMs for that airfield.
1 SIGMET reported for the Langen FIR (EDGG) :
 
Severe icing
EDGG SIGMET 2 VALID 201400/201800 EDZF
EDGG LANGEN FIR SEV ICE FCST WI N5206 E00755 - N5121 E01028 - N5015 E01016 - N4904 E00756 - N4906 E00756 - N4937 E00622 - N5153 E00608 - N5206 E00755 2000FT/FL160 MOV NE NC=



MET'MAP, your aeronautical weather chart ! - Copyright ORBIFLY December 2007 - Disclaimer

ORBIFLY MET'MAP TEAM :

Programming & Development : Alexandra Zaïnal
Concept & Development : Baudouin d'Aumeries
Co-Development & Prog : Marc-Olivier Méhu
Technical & hardware support : Manuel Goepfert

Contact : metmap@orbifly.com




SOURCES & CREDITS :

   NOAA